Archival Weather

Ronald Reagan Washington Ntl

Arlington, Virginia (KDCA)

Report from: Sunday, March 19, 2023 11:52 PM EDT
Current time: Tuesday, February 27, 2024 4:55 AM EST

Current weather – Weather history – Daily summaries
Weather forecast

Temperature1.7°C (35.1°F)
Wind chill-0.5°C (31.0°F)
Dew point-11.7°C (10.9°F)
Winds 4 kts (2.1 m/s, 4.6 mph) West-Northwest (300°)
Visibility10 mi. (16.1 km)
Clouds Sky clear
Altimeter30.29 in.Hg (1026 mB)
Relative humidity36 %
Density altitude-2,000 ft. (-610 m)
Sea-level pressure102.6 kPa (1026 mB, 30.29 in.Hg)
Remarks System requires maintenance
Automated weather observing station with precipitation discriminator
Flight conditions Visual Meteorological Conditions
Raw dataKDCA 200352Z 30004KT 10SM CLR 02/M12 A3029 RMK AO2 SLP258 T00171117 $
An error has occurred. This application may no longer respond until reloaded. Reload 🗙